Terminal Aerodrome Forecast
Issued by NWS

Home | Current Version | Previous Version | Text Only | Print | Product List | Glossary On
Versions: 1 2 3 4 5 6 7 8 9 10 11 12 13
000
FTUS45 KABQ 271140
TAFFMN
TAF
KFMN 271140Z 2712/2812 VRB06KT P6SM SKC
     FM271600 27011KT P6SM SKC
     FM272000 28017G27KT P6SM SCT120
     FM280200 33009KT P6SM FEW120
     FM281000 07006KT P6SM SKC=

USA.gov is the U.S. government's official web portal to all federal, state and local government web resources and services.